Time;durP1;ratioP1;P1;durP2;ratioP2;P2;SDS_P1;SDS_P2;PMS_P1;PMS_P2;Temp;Humidity;BMP_temperature;BMP_pressure;BME280_temperature;BME280_humidity;BME280_pressure;Samples;Min_cycle;Max_cycle;Signal;HPM_P1;HPM_P2
2023/01/25 00:02:18;;;;;;;16.63;10.77;;;2.10;99.90;;;;;;5046145;28;20253;-85
2023/01/25 00:04:46;;;;;;;16.60;10.73;;;2.10;99.90;;;;;;5050152;28;20190;-85
2023/01/25 00:07:13;;;;;;;19.77;11.10;;;2.10;99.90;;;;;;5052473;28;20225;-85
2023/01/25 00:09:40;;;;;;;17.53;11.33;;;2.00;99.90;;;;;;5047727;28;20202;-85
2023/01/25 00:12:07;;;;;;;19.13;11.97;;;2.00;99.90;;;;;;5046567;28;20200;-85
2023/01/25 00:14:34;;;;;;;18.97;11.30;;;2.00;99.90;;;;;;5046862;28;20209;-85
2023/01/25 00:17:01;;;;;;;15.83;10.87;;;2.00;99.90;;;;;;5044341;28;20216;-85
2023/01/25 00:19:27;;;;;;;17.57;11.03;;;2.00;99.90;;;;;;5045978;28;20204;-85
2023/01/25 00:21:56;;;;;;;16.80;10.00;;;2.00;99.90;;;;;;5038727;28;20647;-85
2023/01/25 00:24:24;;;;;;;20.07;12.00;;;2.10;99.90;;;;;;5036994;28;20220;-85
2023/01/25 00:26:51;;;;;;;20.77;11.70;;;2.00;99.90;;;;;;5044425;28;20206;-85
2023/01/25 00:29:18;;;;;;;20.13;12.27;;;2.00;99.90;;;;;;5044506;28;20769;-85
2023/01/25 00:31:55;;;;;;;20.67;12.27;;;2.20;99.90;;;;;;5046178;28;20205;-85
2023/01/25 00:34:47;;;;;;;20.27;12.03;;;2.20;99.90;;;;;;5045389;28;20247;-85
2023/01/25 00:37:28;;;;;;;19.27;11.93;;;2.10;99.90;;;;;;5047212;28;20279;-85
2023/01/25 00:39:55;;;;;;;21.00;12.30;;;2.10;99.90;;;;;;5044753;28;20194;-85
2023/01/25 00:42:22;;;;;;;20.70;12.60;;;2.10;99.90;;;;;;5047370;28;20701;-85
2023/01/25 00:44:49;;;;;;;17.60;11.97;;;2.20;99.90;;;;;;5043257;28;20578;-85
2023/01/25 00:47:17;;;;;;;19.70;11.83;;;2.20;99.90;;;;;;5046746;28;20247;-85
2023/01/25 00:49:45;;;;;;;19.63;12.60;;;2.10;99.90;;;;;;5043308;28;20232;-85
2023/01/25 00:52:13;;;;;;;19.70;12.20;;;2.00;99.90;;;;;;5044993;28;20660;-85
2023/01/25 00:54:41;;;;;;;21.43;12.00;;;2.00;99.90;;;;;;5046361;28;20204;-85
2023/01/25 00:57:09;;;;;;;18.93;11.47;;;2.00;99.90;;;;;;5050485;28;20204;-84
2023/01/25 00:59:36;;;;;;;18.13;11.17;;;2.00;99.90;;;;;;5047981;28;20251;-85
2023/01/25 01:02:03;;;;;;;19.17;11.50;;;2.00;99.90;;;;;;5050136;28;20202;-85
2023/01/25 01:04:31;;;;;;;15.80;10.63;;;2.00;99.90;;;;;;5049757;28;20206;-85
2023/01/25 01:06:57;;;;;;;18.50;10.63;;;1.90;99.90;;;;;;5049712;28;20208;-84
2023/01/25 01:09:24;;;;;;;18.47;11.07;;;1.80;99.90;;;;;;5048384;28;20232;-85
2023/01/25 01:11:53;;;;;;;18.73;11.80;;;1.80;99.90;;;;;;5049374;28;20209;-84
2023/01/25 01:14:21;;;;;;;18.23;11.00;;;1.80;99.90;;;;;;5047327;28;20198;-84
2023/01/25 01:16:48;;;;;;;19.87;11.87;;;1.80;99.90;;;;;;5045989;28;20213;-84
2023/01/25 01:19:15;;;;;;;18.67;12.03;;;1.80;99.90;;;;;;5044176;28;21519;-84
2023/01/25 01:21:42;;;;;;;18.87;11.30;;;1.80;99.90;;;;;;5050780;28;20204;-84
2023/01/25 01:24:10;;;;;;;17.37;10.70;;;1.90;99.90;;;;;;5049066;28;20277;-84
2023/01/25 01:26:37;;;;;;;15.27;10.53;;;1.80;99.90;;;;;;5040058;28;20674;-84
2023/01/25 01:29:05;;;;;;;19.63;11.63;;;1.90;99.90;;;;;;5046056;28;20304;-84
2023/01/25 01:31:32;;;;;;;16.83;10.80;;;1.90;99.90;;;;;;5045278;28;20799;-84
2023/01/25 01:34:00;;;;;;;18.57;11.80;;;1.90;99.90;;;;;;5045975;28;20304;-84
2023/01/25 01:36:29;;;;;;;16.30;10.60;;;1.90;99.90;;;;;;5041093;28;20202;-84
2023/01/25 01:38:57;;;;;;;17.47;10.90;;;1.80;99.90;;;;;;5043793;28;20217;-84
2023/01/25 01:41:24;;;;;;;18.23;12.17;;;1.80;99.90;;;;;;5047459;28;20220;-84
2023/01/25 01:43:52;;;;;;;20.40;12.13;;;1.80;99.90;;;;;;5046663;28;20199;-84
2023/01/25 01:46:24;;;;;;;17.70;11.50;;;1.90;99.90;;;;;;5047318;28;20208;-84
2023/01/25 01:48:56;;;;;;;18.57;11.57;;;1.90;99.90;;;;;;5040932;28;20694;-84
2023/01/25 01:51:33;;;;;;;18.73;12.07;;;1.90;99.90;;;;;;5044079;28;20566;-84
2023/01/25 01:54:05;;;;;;;17.10;10.97;;;1.90;99.90;;;;;;5041122;28;20233;-85
2023/01/25 01:56:37;;;;;;;17.73;10.17;;;2.00;99.90;;;;;;5042352;28;20555;-84
2023/01/25 01:59:06;;;;;;;16.17;10.00;;;2.10;99.90;;;;;;5037908;28;20234;-84
2023/01/25 02:01:35;;;;;;;18.47;10.40;;;2.00;99.90;;;;;;5046214;28;20690;-84
2023/01/25 02:04:05;;;;;;;16.87;10.73;;;1.90;99.90;;;;;;5035887;28;20202;-85
2023/01/25 02:06:40;;;;;;;19.20;11.13;;;1.90;99.90;;;;;;5046410;28;20201;-84
2023/01/25 02:09:06;;;;;;;21.43;12.33;;;1.80;99.90;;;;;;5045069;28;20243;-85
2023/01/25 02:11:34;;;;;;;20.63;11.90;;;1.80;99.90;;;;;;5045286;28;20202;-85
2023/01/25 02:14:02;;;;;;;18.43;11.43;;;1.80;99.90;;;;;;5048290;28;20678;-85
2023/01/25 02:16:29;;;;;;;18.23;11.20;;;1.80;99.90;;;;;;5050009;28;20198;-85
2023/01/25 02:19:02;;;;;;;17.33;11.70;;;1.80;99.90;;;;;;5044696;28;20279;-85
2023/01/25 02:21:37;;;;;;;17.73;11.03;;;1.80;99.90;;;;;;5048286;28;20466;-85
2023/01/25 02:24:09;;;;;;;17.47;10.17;;;1.90;99.90;;;;;;5040943;28;20227;-85
2023/01/25 02:26:37;;;;;;;19.37;11.23;;;1.80;99.90;;;;;;5041348;28;20213;-85
2023/01/25 02:29:06;;;;;;;15.67;9.97;;;1.90;99.90;;;;;;5041040;28;20765;-84
2023/01/25 02:31:33;;;;;;;16.80;10.77;;;1.80;99.90;;;;;;5035275;28;20195;-84
2023/01/25 02:34:00;;;;;;;17.73;11.10;;;1.80;99.90;;;;;;5045546;28;20194;-84
2023/01/25 02:36:29;;;;;;;17.30;10.47;;;1.80;99.90;;;;;;5041554;28;20263;-85
2023/01/25 02:39:00;;;;;;;16.23;10.23;;;1.60;99.90;;;;;;5046440;28;20210;-84
2023/01/25 02:41:32;;;;;;;17.00;10.63;;;1.60;99.90;;;;;;5049883;28;20581;-84
2023/01/25 02:44:03;;;;;;;19.60;11.03;;;1.60;99.90;;;;;;5037073;28;20654;-84
2023/01/25 02:46:31;;;;;;;19.90;11.60;;;1.70;99.90;;;;;;5048631;28;20293;-84
2023/01/25 02:49:00;;;;;;;17.70;10.73;;;1.70;99.90;;;;;;5048524;28;20229;-84
2023/01/25 02:51:30;;;;;;;20.30;11.43;;;1.80;99.90;;;;;;5045418;28;20198;-84
2023/01/25 02:53:57;;;;;;;18.07;11.47;;;1.80;99.90;;;;;;5047032;28;20201;-84
2023/01/25 02:56:25;;;;;;;17.07;10.83;;;1.80;99.90;;;;;;5048232;28;20200;-84
2023/01/25 02:58:52;;;;;;;20.10;11.47;;;1.80;99.90;;;;;;5043096;28;20677;-84
2023/01/25 03:01:21;;;;;;;19.90;11.13;;;1.80;99.90;;;;;;5048479;28;20202;-85
2023/01/25 03:03:48;;;;;;;18.97;11.40;;;1.80;99.90;;;;;;5048536;28;20198;-84
2023/01/25 03:06:15;;;;;;;17.63;11.27;;;1.80;99.90;;;;;;5047809;28;20199;-84
2023/01/25 03:08:43;;;;;;;19.77;11.73;;;1.80;99.90;;;;;;5047482;28;20225;-84
2023/01/25 03:11:09;;;;;;;21.30;12.13;;;1.70;99.90;;;;;;5036862;28;20658;-84
2023/01/25 03:13:36;;;;;;;18.80;11.80;;;1.70;99.90;;;;;;5048629;28;20212;-84
2023/01/25 03:16:06;;;;;;;20.40;12.33;;;1.80;99.90;;;;;;5048436;28;20206;-84
2023/01/25 03:18:35;;;;;;;20.30;11.90;;;1.80;99.90;;;;;;5046537;28;20608;-84
2023/01/25 03:21:07;;;;;;;18.83;11.20;;;1.80;99.90;;;;;;5038480;28;20202;-84
2023/01/25 03:23:34;;;;;;;17.60;10.70;;;1.80;99.90;;;;;;5047515;28;20726;-84
2023/01/25 03:26:10;;;;;;;19.00;10.93;;;1.80;99.90;;;;;;5050506;28;20202;-85
2023/01/25 03:28:38;;;;;;;18.90;11.23;;;1.80;99.90;;;;;;5039581;28;20225;-84
2023/01/25 03:31:06;;;;;;;18.20;10.53;;;1.70;99.90;;;;;;5043814;28;20213;-84
2023/01/25 03:33:35;;;;;;;17.07;10.33;;;1.70;99.90;;;;;;5043921;28;20202;-84
2023/01/25 03:36:02;;;;;;;16.27;9.87;;;1.70;99.90;;;;;;5043943;28;20229;-84
2023/01/25 03:38:29;;;;;;;17.73;10.47;;;1.80;99.90;;;;;;5047846;28;20204;-84
2023/01/25 03:40:57;;;;;;;16.87;10.10;;;1.80;99.90;;;;;;5047595;28;20208;-84
2023/01/25 03:43:24;;;;;;;18.90;11.27;;;1.80;99.90;;;;;;5046695;28;20252;-85
2023/01/25 03:45:54;;;;;;;16.53;10.20;;;1.80;99.90;;;;;;5044148;28;20198;-84
2023/01/25 03:48:22;;;;;;;18.93;10.80;;;1.80;99.90;;;;;;5045826;28;20225;-84
2023/01/25 03:50:52;;;;;;;16.80;10.10;;;1.90;99.90;;;;;;5043584;28;20205;-84
2023/01/25 03:53:26;;;;;;;18.70;9.43;;;1.90;99.90;;;;;;5045317;28;20554;-84
2023/01/25 03:55:54;;;;;;;17.57;10.03;;;1.90;99.90;;;;;;5046178;28;20550;-84
2023/01/25 03:58:21;;;;;;;17.03;10.47;;;1.90;99.90;;;;;;5047225;28;20198;-82
2023/01/25 04:00:48;;;;;;;17.63;10.60;;;1.60;99.90;;;;;;5048634;28;20669;-84
2023/01/25 04:03:14;;;;;;;17.17;10.63;;;1.60;99.90;;;;;;5046802;28;20205;-84
2023/01/25 04:05:42;;;;;;;18.97;10.80;;;1.60;99.90;;;;;;5047669;28;20205;-84
2023/01/25 04:08:10;;;;;;;16.93;10.70;;;1.50;99.90;;;;;;5047714;28;20685;-85
2023/01/25 04:10:37;;;;;;;16.97;10.13;;;1.60;99.90;;;;;;5038692;28;20662;-84
2023/01/25 04:13:04;;;;;;;19.10;10.67;;;1.60;99.90;;;;;;5040413;28;20206;-84
2023/01/25 04:15:30;;;;;;;20.60;10.80;;;1.70;99.90;;;;;;5048233;28;20206;-84
2023/01/25 04:17:57;;;;;;;18.13;10.83;;;1.80;99.90;;;;;;5045055;28;20194;-84
2023/01/25 04:20:24;;;;;;;16.37;10.30;;;1.80;99.90;;;;;;5047995;28;20195;-84
2023/01/25 04:22:51;;;;;;;17.83;10.57;;;1.80;99.90;;;;;;5044106;28;20720;-84
2023/01/25 04:25:19;;;;;;;17.87;10.30;;;1.70;99.90;;;;;;5045539;28;20217;-84
2023/01/25 04:27:46;;;;;;;16.13;9.83;;;1.70;99.90;;;;;;5047573;28;20203;-84
2023/01/25 04:30:13;;;;;;;16.97;10.03;;;1.70;99.90;;;;;;5044654;28;20223;-84
2023/01/25 04:32:40;;;;;;;17.23;10.73;;;1.80;99.90;;;;;;5049837;28;20214;-84
2023/01/25 04:35:08;;;;;;;17.43;10.47;;;1.80;99.90;;;;;;5042423;28;20202;-84
2023/01/25 04:37:35;;;;;;;18.23;10.43;;;1.80;99.90;;;;;;5050677;28;20259;-84
2023/01/25 04:40:02;;;;;;;20.73;11.17;;;1.80;99.90;;;;;;5049010;28;20214;-84
2023/01/25 04:42:31;;;;;;;15.83;9.73;;;1.70;99.90;;;;;;5052584;28;20660;-84
2023/01/25 04:44:58;;;;;;;16.30;9.77;;;1.80;99.90;;;;;;5050918;28;20194;-85
2023/01/25 04:47:24;;;;;;;14.77;9.57;;;1.80;99.90;;;;;;5051286;28;20247;-84
2023/01/25 04:49:51;;;;;;;15.90;9.50;;;1.80;99.90;;;;;;5050878;28;20217;-84
2023/01/25 04:52:18;;;;;;;16.53;9.43;;;1.80;99.90;;;;;;5046521;28;20202;-85
2023/01/25 04:54:45;;;;;;;14.63;9.30;;;1.70;99.90;;;;;;5045155;28;20216;-85
2023/01/25 04:57:12;;;;;;;16.83;9.73;;;1.60;99.90;;;;;;5051271;28;20198;-84
2023/01/25 04:59:41;;;;;;;16.47;10.17;;;1.70;99.90;;;;;;5047809;28;20238;-84
2023/01/25 05:02:07;;;;;;;18.67;10.10;;;1.70;99.90;;;;;;5049965;28;20572;-84
2023/01/25 05:04:34;;;;;;;14.90;9.33;;;1.70;99.90;;;;;;5050265;28;20562;-84
2023/01/25 05:07:01;;;;;;;17.37;9.73;;;1.70;99.90;;;;;;5051678;28;20221;-84
2023/01/25 05:09:28;;;;;;;15.50;9.60;;;1.70;99.90;;;;;;5046233;28;20230;-84
2023/01/25 05:11:55;;;;;;;16.13;10.00;;;1.70;99.90;;;;;;5046275;28;20222;-84
2023/01/25 05:14:22;;;;;;;14.07;8.90;;;1.70;99.90;;;;;;5047764;28;20540;-84
2023/01/25 05:16:51;;;;;;;16.50;8.70;;;1.70;99.90;;;;;;5048769;28;20658;-84
2023/01/25 05:19:17;;;;;;;12.70;8.57;;;1.60;99.90;;;;;;5045557;28;20252;-84
2023/01/25 05:21:59;;;;;;;12.73;8.17;;;1.60;99.90;;;;;;5050298;28;20216;-84
2023/01/25 05:24:27;;;;;;;11.97;8.00;;;1.60;99.90;;;;;;5039103;28;20705;-84
2023/01/25 05:27:02;;;;;;;13.37;8.60;;;1.60;99.90;;;;;;5042364;28;20224;-84
2023/01/25 05:29:30;;;;;;;13.33;8.33;;;1.60;99.90;;;;;;5048238;28;20221;-84
2023/01/25 05:31:59;;;;;;;13.70;8.33;;;1.70;99.90;;;;;;5050997;28;20961;-85
2023/01/25 05:34:26;;;;;;;12.17;7.90;;;1.60;99.90;;;;;;5047138;28;20209;-85
2023/01/25 05:36:53;;;;;;;13.57;8.33;;;1.60;99.90;;;;;;5048977;28;20206;-84
2023/01/25 05:39:20;;;;;;;12.57;7.90;;;1.60;99.90;;;;;;5047866;28;20679;-84
2023/01/25 05:41:47;;;;;;;14.47;7.93;;;1.60;99.90;;;;;;5043473;28;20205;-84
2023/01/25 05:44:14;;;;;;;12.37;7.63;;;1.60;99.90;;;;;;5037068;28;20199;-84
2023/01/25 05:46:41;;;;;;;12.90;7.97;;;1.60;99.90;;;;;;5049774;28;20210;-85
2023/01/25 05:49:09;;;;;;;12.33;7.87;;;1.60;99.90;;;;;;5039103;28;20678;-86
2023/01/25 05:51:37;;;;;;;11.17;7.47;;;1.60;99.90;;;;;;5044246;28;20198;-85
2023/01/25 05:54:05;;;;;;;12.60;7.90;;;1.60;99.90;;;;;;5038682;28;20247;-86
2023/01/25 05:56:32;;;;;;;11.33;7.43;;;1.60;99.90;;;;;;5043905;28;20198;-85
2023/01/25 05:59:01;;;;;;;12.53;7.77;;;1.60;99.90;;;;;;5045143;28;20284;-84
2023/01/25 06:01:29;;;;;;;12.20;7.70;;;1.60;99.90;;;;;;5047616;28;20561;-84
2023/01/25 06:03:56;;;;;;;12.00;7.87;;;1.60;99.90;;;;;;5044891;28;20202;-83
2023/01/25 06:06:24;;;;;;;12.70;8.17;;;1.60;99.90;;;;;;5043932;28;20209;-82
2023/01/25 06:08:51;;;;;;;15.07;8.27;;;1.70;99.90;;;;;;5045036;28;20226;-82
2023/01/25 06:11:20;;;;;;;12.50;7.80;;;1.60;99.90;;;;;;5048018;28;20213;-82
2023/01/25 06:13:47;;;;;;;13.27;8.50;;;1.50;99.90;;;;;;5046328;28;20190;-81
2023/01/25 06:16:14;;;;;;;13.50;8.40;;;1.50;99.90;;;;;;5045197;28;20252;-82
2023/01/25 06:18:41;;;;;;;13.57;7.63;;;1.50;99.90;;;;;;5040686;28;20206;-82
2023/01/25 06:21:08;;;;;;;11.27;7.57;;;1.50;99.90;;;;;;5039299;28;20201;-81
2023/01/25 06:23:37;;;;;;;12.03;8.03;;;1.40;99.90;;;;;;5037090;28;20218;-82
2023/01/25 06:26:07;;;;;;;11.87;8.33;;;1.50;99.90;;;;;;5035540;28;20202;-81
2023/01/25 06:28:35;;;;;;;12.20;7.83;;;1.60;99.90;;;;;;5038537;28;20773;-80
2023/01/25 06:31:07;;;;;;;11.33;7.50;;;1.40;99.90;;;;;;5043276;28;20225;-84
2023/01/25 06:33:35;;;;;;;10.07;6.97;;;1.40;99.90;;;;;;5041965;28;20194;-86
2023/01/25 06:36:03;;;;;;;10.50;7.20;;;1.40;99.90;;;;;;5046325;28;20193;-87
2023/01/25 06:38:31;;;;;;;11.27;7.00;;;1.40;99.90;;;;;;5046634;28;20677;-86
2023/01/25 06:41:03;;;;;;;9.10;6.80;;;1.40;99.90;;;;;;5050716;28;20572;-85
2023/01/25 06:43:30;;;;;;;10.13;6.50;;;1.40;99.70;;;;;;5034740;28;20732;-85
2023/01/25 06:45:58;;;;;;;8.27;6.13;;;1.50;99.80;;;;;;5050932;28;20558;-83
2023/01/25 06:48:25;;;;;;;9.60;6.83;;;1.50;99.50;;;;;;5043034;28;20197;-83
2023/01/25 06:50:57;;;;;;;9.67;6.63;;;1.50;99.70;;;;;;5037955;28;20312;-84
2023/01/25 06:53:26;;;;;;;13.70;7.20;;;1.50;99.90;;;;;;5036810;28;20210;-84
2023/01/25 06:56:02;;;;;;;14.60;7.60;;;1.60;99.50;;;;;;5048649;28;20256;-82
2023/01/25 06:58:30;;;;;;;11.47;7.00;;;1.60;99.90;;;;;;5044981;28;20201;-83
2023/01/25 07:01:01;;;;;;;10.40;7.30;;;1.50;99.90;;;;;;5042379;28;20201;-83
2023/01/25 07:03:28;;;;;;;11.90;7.77;;;1.50;99.90;;;;;;5044892;28;20209;-83
2023/01/25 07:05:58;;;;;;;9.47;7.27;;;1.50;99.90;;;;;;5038682;28;20190;-83
2023/01/25 07:08:25;;;;;;;11.17;7.33;;;1.50;99.90;;;;;;5036157;28;20626;-83
2023/01/25 07:10:55;;;;;;;9.80;6.90;;;1.60;99.90;;;;;;5048781;28;20601;-81
2023/01/25 07:13:24;;;;;;;9.83;7.30;;;1.60;99.90;;;;;;5041242;28;20206;-85
2023/01/25 07:15:55;;;;;;;9.03;6.43;;;1.60;99.90;;;;;;5043194;28;20197;-84
2023/01/25 07:18:22;;;;;;;11.57;6.97;;;1.50;99.90;;;;;;5049144;28;20202;-84
2023/01/25 07:20:49;;;;;;;10.43;7.50;;;1.50;99.60;;;;;;5039154;28;20202;-85
2023/01/25 07:23:16;;;;;;;9.60;6.63;;;1.50;99.90;;;;;;5040852;28;20249;-87
2023/01/25 07:25:47;;;;;;;10.20;7.13;;;1.50;99.50;;;;;;5045912;28;20200;-85
2023/01/25 07:28:14;;;;;;;9.03;6.60;;;1.60;99.90;;;;;;5040592;28;20690;-86
2023/01/25 07:30:43;;;;;;;9.90;7.03;;;1.60;99.80;;;;;;5042811;28;20232;-85
2023/01/25 07:33:10;;;;;;;9.17;7.00;;;1.50;99.50;;;;;;5047503;28;20237;-83
2023/01/25 07:35:38;;;;;;;9.67;7.10;;;1.50;99.50;;;;;;5043735;28;20281;-82
2023/01/25 07:38:04;;;;;;;11.00;7.13;;;1.50;99.90;;;;;;5044963;28;21351;-84
2023/01/25 07:40:31;;;;;;;9.90;7.10;;;1.60;99.90;;;;;;5042917;28;20324;-84
2023/01/25 07:42:58;;;;;;;10.83;6.53;;;1.40;99.90;;;;;;5045316;28;20202;-84
2023/01/25 07:45:29;;;;;;;9.30;6.93;;;1.50;99.90;;;;;;5043405;28;20205;-83
2023/01/25 07:47:58;;;;;;;10.67;6.70;;;1.50;99.90;;;;;;5036835;28;20202;-84
2023/01/25 07:50:26;;;;;;;9.10;6.70;;;1.60;99.80;;;;;;5039211;28;20545;-83
2023/01/25 07:52:53;;;;;;;9.57;6.80;;;1.60;99.50;;;;;;5043722;28;20198;-85
2023/01/25 07:55:20;;;;;;;10.57;7.07;;;1.50;99.50;;;;;;5048444;28;20609;-84
2023/01/25 07:57:47;;;;;;;11.23;7.50;;;1.50;99.50;;;;;;5044203;28;20200;-84
2023/01/25 08:00:14;;;;;;;8.90;6.60;;;1.40;99.50;;;;;;5050820;28;20423;-84
2023/01/25 08:02:41;;;;;;;9.87;6.57;;;1.50;99.50;;;;;;5041762;28;20198;-84
2023/01/25 08:05:10;;;;;;;12.03;7.63;;;1.50;99.50;;;;;;5043761;28;20206;-81
2023/01/25 08:07:37;;;;;;;9.63;6.77;;;1.60;99.50;;;;;;5048653;28;20247;-84
2023/01/25 08:10:05;;;;;;;10.50;6.77;;;1.60;99.50;;;;;;5037881;28;20685;-83
2023/01/25 08:12:33;;;;;;;9.97;6.23;;;1.50;99.50;;;;;;5038975;28;20202;-83
2023/01/25 08:15:00;;;;;;;10.20;7.10;;;1.40;99.50;;;;;;5038794;28;20269;-83
2023/01/25 08:17:30;;;;;;;8.93;6.83;;;1.50;99.50;;;;;;5039506;28;20201;-83
2023/01/25 08:19:57;;;;;;;10.37;6.70;;;1.40;99.50;;;;;;5038290;28;20202;-82
2023/01/25 08:22:26;;;;;;;11.37;7.37;;;1.50;99.50;;;;;;5041617;28;20206;-83
2023/01/25 08:24:53;;;;;;;11.83;7.43;;;1.50;99.50;;;;;;5038159;28;20562;-82
2023/01/25 08:27:20;;;;;;;10.67;6.40;;;1.60;99.50;;;;;;5040036;28;20204;-83
2023/01/25 08:29:49;;;;;;;8.40;6.37;;;1.70;99.50;;;;;;5045425;28;20218;-84
2023/01/25 08:32:16;;;;;;;9.07;6.50;;;1.70;99.00;;;;;;5045863;28;20202;-82
2023/01/25 08:34:42;;;;;;;7.97;6.37;;;1.70;98.90;;;;;;5048480;28;20650;-82
2023/01/25 08:37:09;;;;;;;8.63;5.80;;;1.80;98.80;;;;;;5041374;28;20202;-82
2023/01/25 08:39:37;;;;;;;9.27;6.57;;;1.70;99.00;;;;;;5046377;28;20204;-83
2023/01/25 08:42:05;;;;;;;11.40;7.03;;;1.70;99.20;;;;;;5039358;28;20232;-83
2023/01/25 08:44:32;;;;;;;8.90;6.73;;;1.60;99.20;;;;;;5043460;28;20202;-82
2023/01/25 08:46:59;;;;;;;9.50;6.53;;;1.70;99.50;;;;;;5041259;28;20211;-82
2023/01/25 08:49:26;;;;;;;9.97;7.20;;;1.80;99.60;;;;;;5051177;28;20198;-82
2023/01/25 08:51:53;;;;;;;9.60;7.27;;;1.80;99.10;;;;;;5046775;28;20218;-82
2023/01/25 08:54:20;;;;;;;11.63;7.07;;;1.80;99.10;;;;;;5045459;28;20201;-83
2023/01/25 08:56:48;;;;;;;10.83;7.40;;;1.70;99.30;;;;;;5047354;28;20202;-83
2023/01/25 08:59:14;;;;;;;11.97;8.17;;;1.60;99.50;;;;;;5050385;28;20242;-83
2023/01/25 09:01:42;;;;;;;11.83;7.77;;;1.70;99.50;;;;;;5040674;28;20202;-81
2023/01/25 09:04:08;;;;;;;10.87;7.27;;;1.70;99.50;;;;;;5048858;28;20206;-82
2023/01/25 09:06:35;;;;;;;8.83;7.13;;;1.80;99.60;;;;;;5050240;28;20532;-83
2023/01/25 09:09:03;;;;;;;12.47;7.73;;;1.70;99.50;;;;;;5047819;28;20193;-84
2023/01/25 09:11:30;;;;;;;12.37;8.57;;;1.70;99.50;;;;;;5049135;28;20230;-83
2023/01/25 09:13:59;;;;;;;11.00;7.93;;;1.70;99.60;;;;;;5039751;28;20199;-83
2023/01/25 09:16:29;;;;;;;10.10;7.73;;;1.80;99.60;;;;;;5039525;28;20217;-84
2023/01/25 09:18:58;;;;;;;12.60;8.27;;;1.80;99.60;;;;;;5040161;28;20685;-84
2023/01/25 09:21:25;;;;;;;11.00;8.10;;;1.90;99.60;;;;;;5041696;28;20201;-83
2023/01/25 09:23:53;;;;;;;12.67;8.23;;;1.90;99.60;;;;;;5045985;28;20218;-85
2023/01/25 09:26:21;;;;;;;10.63;7.53;;;1.90;99.30;;;;;;5042985;28;20260;-85
2023/01/25 09:28:49;;;;;;;12.43;8.13;;;1.90;99.30;;;;;;5037866;28;20198;-85
2023/01/25 09:31:19;;;;;;;11.70;8.23;;;1.80;99.10;;;;;;5037139;28;20587;-83
2023/01/25 09:33:46;;;;;;;11.90;7.40;;;1.90;99.40;;;;;;5043385;28;20208;-81
2023/01/25 09:36:13;;;;;;;10.67;6.93;;;1.90;98.90;;;;;;5042905;28;20205;-83
2023/01/25 09:38:40;;;;;;;10.30;7.70;;;1.80;98.80;;;;;;5038174;28;20206;-82
2023/01/25 09:41:21;;;;;;;11.67;8.17;;;1.70;99.00;;;;;;5039669;28;20282;-82
2023/01/25 09:44:08;;;;;;;13.43;8.73;;;1.70;99.50;;;;;;5041889;28;20198;-82
2023/01/25 09:46:40;;;;;;;12.40;7.83;;;1.70;99.50;;;;;;5042401;28;20240;-83
2023/01/25 09:49:21;;;;;;;11.70;8.20;;;1.60;99.50;;;;;;5041760;28;20208;-82
2023/01/25 09:52:06;;;;;;;11.90;7.97;;;1.60;99.50;;;;;;5044111;28;20226;-82
2023/01/25 09:54:37;;;;;;;12.80;8.77;;;1.60;99.60;;;;;;5044022;28;20288;-82
2023/01/25 09:57:04;;;;;;;11.43;7.90;;;1.70;99.50;;;;;;5043035;28;20209;-83
2023/01/25 09:59:31;;;;;;;12.70;8.50;;;1.80;99.60;;;;;;5042383;28;20835;-84
2023/01/25 10:02:02;;;;;;;13.13;8.33;;;1.70;99.50;;;;;;5046044;28;20289;-81
2023/01/25 10:04:35;;;;;;;12.23;8.43;;;1.80;99.60;;;;;;5048519;28;20285;-83
2023/01/25 10:07:14;;;;;;;13.30;8.00;;;1.80;99.60;;;;;;5043673;28;20193;-82
2023/01/25 10:09:47;;;;;;;12.33;8.37;;;1.80;99.60;;;;;;5049313;28;20293;-83
2023/01/25 10:12:18;;;;;;;12.40;8.27;;;1.90;99.60;;;;;;5045142;28;20221;-83
2023/01/25 10:14:45;;;;;;;13.30;8.30;;;1.90;99.50;;;;;;5040335;28;20198;-83
2023/01/25 10:17:23;;;;;;;12.27;8.07;;;1.90;99.50;;;;;;5041865;28;20656;-83
2023/01/25 10:20:07;;;;;;;11.63;7.90;;;1.90;99.30;;;;;;5041502;28;20228;-83
2023/01/25 10:22:40;;;;;;;10.80;8.00;;;1.90;99.60;;;;;;5040622;28;20229;-82
2023/01/25 10:25:19;;;;;;;12.20;7.90;;;2.00;98.90;;;;;;5042164;28;20267;-83
2023/01/25 10:27:56;;;;;;;12.17;8.20;;;1.90;99.10;;;;;;5044996;28;20198;-82
2023/01/25 10:30:27;;;;;;;11.80;8.10;;;1.90;99.10;;;;;;5044266;28;20196;-82
2023/01/25 10:32:59;;;;;;;9.57;7.10;;;1.80;99.00;;;;;;5043377;28;20205;-82
2023/01/25 10:35:30;;;;;;;11.20;7.97;;;1.80;99.20;;;;;;5042437;28;20194;-82
2023/01/25 10:38:02;;;;;;;13.27;8.20;;;1.80;99.40;;;;;;5043310;28;20300;-83
2023/01/25 10:40:38;;;;;;;13.53;7.77;;;1.70;99.50;;;;;;5042356;28;20204;-83
2023/01/25 10:43:12;;;;;;;10.40;7.33;;;1.80;99.60;;;;;;5050836;28;20288;-82
2023/01/25 10:45:41;;;;;;;10.60;7.53;;;1.90;98.80;;;;;;5047345;28;20197;-86
2023/01/25 10:48:17;;;;;;;12.20;8.07;;;1.90;98.50;;;;;;5041851;28;20563;-83
2023/01/25 10:50:50;;;;;;;10.30;7.50;;;1.90;98.70;;;;;;5042998;28;20226;-83
2023/01/25 10:53:26;;;;;;;11.57;8.10;;;1.90;98.90;;;;;;5044782;28;20649;-84
2023/01/25 10:56:02;;;;;;;10.87;7.23;;;1.90;98.60;;;;;;5044765;28;20198;-83
2023/01/25 10:58:37;;;;;;;12.40;7.90;;;1.80;98.80;;;;;;5040485;28;20198;-81
2023/01/25 11:01:06;;;;;;;10.90;7.70;;;1.80;99.00;;;;;;5038640;28;21311;-81
2023/01/25 11:03:37;;;;;;;13.90;7.77;;;1.90;98.90;;;;;;5041399;28;20311;-81
2023/01/25 11:06:05;;;;;;;11.23;7.57;;;1.90;99.00;;;;;;5043801;28;20220;-81
2023/01/25 11:08:34;;;;;;;11.87;7.20;;;1.90;99.00;;;;;;5039832;28;20206;-81
2023/01/25 11:11:15;;;;;;;11.03;7.53;;;1.80;98.70;;;;;;5047306;28;20229;-81
2023/01/25 11:13:42;;;;;;;10.40;6.93;;;1.80;98.90;;;;;;5047035;28;20197;-81
2023/01/25 11:16:20;;;;;;;12.60;7.17;;;1.90;98.60;;;;;;5046630;28;20210;-81
2023/01/25 11:18:53;;;;;;;11.07;7.00;;;1.80;98.60;;;;;;5044414;28;20202;-84
2023/01/25 11:21:22;;;;;;;10.77;7.40;;;1.80;98.80;;;;;;5046777;28;20280;-82
2023/01/25 11:24:01;;;;;;;10.83;7.10;;;1.90;98.50;;;;;;5045112;28;20244;-85
2023/01/25 11:26:28;;;;;;;12.37;7.63;;;1.90;98.60;;;;;;5043066;28;20213;-85
2023/01/25 11:29:10;;;;;;;12.10;8.00;;;1.80;98.60;;;;;;5041468;28;20190;-84
2023/01/25 11:31:40;;;;;;;10.83;7.33;;;1.80;98.90;;;;;;5039925;28;20215;-83
2023/01/25 11:34:11;;;;;;;13.00;8.53;;;1.70;99.00;;;;;;5047638;28;20293;-84
2023/01/25 11:36:55;;;;;;;14.43;8.97;;;1.80;99.00;;;;;;5046215;28;20507;-83
2023/01/25 11:39:36;;;;;;;13.87;9.27;;;1.80;99.00;;;;;;5049530;28;20198;-84
2023/01/25 11:42:23;;;;;;;13.97;8.57;;;2.00;98.50;;;;;;5048510;28;20211;-83
2023/01/25 11:45:13;;;;;;;13.47;8.80;;;1.90;98.50;;;;;;5041988;28;20197;-83
2023/01/25 11:47:52;;;;;;;14.47;9.50;;;2.00;98.50;;;;;;5048022;28;20205;-82
2023/01/25 11:50:26;;;;;;;14.30;8.93;;;1.80;98.50;;;;;;5045450;28;20205;-83
2023/01/25 11:53:44;;;;;;;12.57;8.30;;;1.80;98.90;;;;;;5049261;28;20237;-82
2023/01/25 11:56:20;;;;;;;12.57;8.17;;;1.90;98.80;;;;;;4990446;28;20315;-82
2023/01/25 11:59:01;;;;;;;13.53;8.87;;;2.00;98.40;;;;;;4988250;28;20243;-83
2023/01/25 12:01:37;;;;;;;15.07;9.37;;;2.10;98.40;;;;;;5023354;28;20217;-82
2023/01/25 12:04:36;;;;;;;16.30;9.43;;;1.90;98.50;;;;;;5051625;28;20256;-82
2023/01/25 12:07:06;;;;;;;16.80;9.07;;;2.00;98.60;;;;;;5048221;28;20202;-82
2023/01/25 12:09:46;;;;;;;16.33;8.70;;;2.10;98.30;;;;;;5048657;28;20216;-80
2023/01/25 12:12:21;;;;;;;13.67;8.77;;;2.10;98.10;;;;;;5044577;28;20697;-83
2023/01/25 12:15:13;;;;;;;15.90;8.63;;;2.00;98.20;;;;;;5041536;28;20194;-82
2023/01/25 12:18:00;;;;;;;13.73;8.60;;;2.00;98.20;;;;;;5045355;28;20212;-82
2023/01/25 12:20:37;;;;;;;14.80;8.83;;;1.90;98.40;;;;;;5038777;28;20210;-82
2023/01/25 12:23:22;;;;;;;14.93;9.23;;;1.90;98.60;;;;;;5042651;28;20221;-82
2023/01/25 12:25:58;;;;;;;14.80;9.33;;;1.90;98.80;;;;;;5052746;28;20659;-83
2023/01/25 12:28:29;;;;;;;15.87;9.70;;;1.80;98.90;;;;;;5045251;28;20204;-82
2023/01/25 12:30:59;;;;;;;15.77;9.70;;;1.90;99.00;;;;;;5042873;28;20264;-82
2023/01/25 12:33:34;;;;;;;15.87;10.27;;;1.90;98.90;;;;;;5040192;28;20198;-81
2023/01/25 12:36:06;;;;;;;16.73;10.27;;;1.90;99.00;;;;;;5037161;28;20206;-84
2023/01/25 12:38:42;;;;;;;15.33;9.70;;;1.80;99.00;;;;;;5040013;28;20198;-81
2023/01/25 12:41:23;;;;;;;17.47;10.23;;;1.70;99.50;;;;;;5046249;28;20599;-81
2023/01/25 12:43:54;;;;;;;18.00;9.97;;;1.80;99.30;;;;;;5049007;28;20610;-81
2023/01/25 12:46:27;;;;;;;15.80;9.87;;;1.80;99.60;;;;;;5051960;28;20202;-81
2023/01/25 12:48:59;;;;;;;15.73;10.00;;;1.80;99.30;;;;;;5049752;28;20206;-80
2023/01/25 12:51:38;;;;;;;15.17;9.73;;;1.90;99.10;;;;;;5044744;28;20228;-81
2023/01/25 12:54:17;;;;;;;14.27;9.57;;;2.00;98.60;;;;;;5046788;28;20214;-82
2023/01/25 12:56:53;;;;;;;13.67;8.90;;;2.00;99.00;;;;;;5043256;28;20198;-81
2023/01/25 12:59:33;;;;;;;15.17;9.40;;;1.90;98.60;;;;;;5041298;28;20717;-83